Time;durP1;ratioP1;P1;durP2;ratioP2;P2;SDS_P1;SDS_P2;PMS_P1;PMS_P2;Temp;Humidity;BMP_temperature;BMP_pressure;BME280_temperature;BME280_humidity;BME280_pressure;Samples;Min_cycle;Max_cycle;Signal;HPM_P1;HPM_P2
2023/10/02 00:01:57;;;;;;;16.20;10.38;;;;;;;17.43;100.00;101929.06;10579642;28;20045;-74
2023/10/02 00:07:07;;;;;;;25.58;11.57;;;;;;;17.32;100.00;101918.78;10582861;28;20032;-77
2023/10/02 00:12:11;;;;;;;15.10;10.43;;;;;;;17.26;100.00;101922.44;10581792;28;20077;-76
2023/10/02 00:17:15;;;;;;;24.60;12.80;;;;;;;17.20;100.00;101924.13;10581546;28;20055;-74
2023/10/02 00:22:35;;;;;;;16.85;12.20;;;;;;;17.17;100.00;101929.19;10582114;28;20039;-76
2023/10/02 00:27:36;;;;;;;20.02;12.10;;;;;;;17.06;100.00;101941.63;10581430;27;20036;-77
2023/10/02 00:32:40;;;;;;;24.30;13.02;;;;;;;16.99;100.00;101935.34;10580611;28;20046;-75
2023/10/02 00:37:44;;;;;;;26.38;11.13;;;;;;;16.90;100.00;101926.53;10582858;28;20239;-75
2023/10/02 00:42:45;;;;;;;18.20;11.77;;;;;;;16.89;100.00;101924.84;10591333;28;20136;-77
2023/10/02 00:47:47;;;;;;;20.67;12.52;;;;;;;16.93;100.00;101928.00;10582930;28;20046;-75
2023/10/02 00:52:50;;;;;;;25.88;12.15;;;;;;;16.91;100.00;101914.56;10582246;28;20092;-74
2023/10/02 00:57:52;;;;;;;16.33;12.32;;;;;;;16.96;100.00;101911.16;10583974;28;20031;-72
2023/10/02 01:02:57;;;;;;;24.27;12.43;;;;;;;16.99;100.00;101909.91;10577592;28;20035;-73
2023/10/02 01:07:58;;;;;;;16.95;10.05;;;;;;;16.94;100.00;101894.09;10579249;28;20107;-73
2023/10/02 01:13:02;;;;;;;16.25;11.40;;;;;;;17.00;100.00;101906.09;10578355;28;20043;-73
2023/10/02 01:18:35;;;;;;;24.80;12.50;;;;;;;16.93;100.00;101909.69;10578923;28;20185;-73
2023/10/02 01:23:30;;;;;;;20.00;13.43;;;;;;;16.86;100.00;101906.13;10574626;28;20047;-73
2023/10/02 01:28:51;;;;;;;23.70;13.10;;;;;;;16.80;100.00;101917.94;10577458;28;20034;-73
2023/10/02 01:33:54;;;;;;;22.10;11.68;;;;;;;16.74;100.00;101910.56;10578232;28;20503;-73
2023/10/02 01:38:59;;;;;;;27.67;14.93;;;;;;;16.69;100.00;101921.31;10579082;28;20039;-73
2023/10/02 01:44:00;;;;;;;16.13;11.50;;;;;;;16.63;100.00;101912.06;10576982;28;20057;-73
2023/10/02 01:49:01;;;;;;;25.08;14.27;;;;;;;16.68;100.00;101916.88;10559906;28;20028;-73
2023/10/02 01:54:15;;;;;;;20.02;12.35;;;;;;;16.65;100.00;101914.56;10577993;28;20035;-73
2023/10/02 01:59:19;;;;;;;17.15;11.68;;;;;;;16.65;100.00;101903.63;10578054;28;20366;-73
2023/10/02 02:04:20;;;;;;;22.20;13.80;;;;;;;16.68;100.00;101897.72;10576885;28;20083;-73
2023/10/02 02:09:25;;;;;;;18.42;14.40;;;;;;;16.68;100.00;101898.56;10576333;28;20043;-73
2023/10/02 02:14:27;;;;;;;21.50;11.60;;;;;;;16.75;100.00;101893.09;10580000;28;20474;-73
2023/10/02 02:19:28;;;;;;;21.83;14.15;;;;;;;16.78;100.00;101883.63;10584278;28;20048;-74
2023/10/02 02:24:34;;;;;;;29.25;16.83;;;;;;;16.79;100.00;101894.38;10584327;28;20084;-73
2023/10/02 02:29:35;;;;;;;24.37;16.47;;;;;;;16.78;100.00;101894.56;10585389;28;20050;-73
2023/10/02 02:34:36;;;;;;;26.27;14.02;;;;;;;16.72;100.00;101883.44;10585797;28;20054;-73
2023/10/02 02:39:38;;;;;;;28.50;16.55;;;;;;;16.66;100.00;101888.91;10584750;28;20492;-73
2023/10/02 02:44:40;;;;;;;35.15;17.08;;;;;;;16.59;100.00;101894.41;10585097;28;20036;-73
2023/10/02 02:49:51;;;;;;;23.52;14.43;;;;;;;16.58;100.00;101894.59;10584163;28;20032;-73
2023/10/02 02:55:12;;;;;;;27.90;15.75;;;;;;;16.56;100.00;101885.75;10551390;28;20043;-73
2023/10/02 03:00:31;;;;;;;22.35;15.25;;;;;;;16.56;100.00;101885.75;10583817;28;20374;-73
2023/10/02 03:05:38;;;;;;;23.45;15.15;;;;;;;16.48;100.00;101884.09;10568065;28;20031;-73
2023/10/02 03:10:39;;;;;;;20.88;15.60;;;;;;;16.44;100.00;101880.94;10583032;28;20111;-73
2023/10/02 03:15:49;;;;;;;23.50;15.30;;;;;;;16.43;100.00;101882.00;10582578;28;20524;-73
2023/10/02 03:20:50;;;;;;;22.65;15.63;;;;;;;16.38;100.00;101884.53;10582735;28;20512;-73
2023/10/02 03:25:55;;;;;;;33.88;16.45;;;;;;;16.36;100.00;101874.84;10582557;28;20068;-73
2023/10/02 03:30:55;;;;;;;30.30;17.05;;;;;;;16.31;100.00;101866.47;10582841;28;20032;-73
2023/10/02 03:36:07;;;;;;;25.95;16.15;;;;;;;16.32;100.00;101874.44;10582398;28;20061;-72
2023/10/02 03:41:11;;;;;;;21.90;15.52;;;;;;;16.25;100.00;101868.16;10583028;28;20080;-73
2023/10/02 03:46:36;;;;;;;31.80;15.60;;;;;;;16.24;100.00;101869.19;10564799;28;20031;-73
2023/10/02 03:51:40;;;;;;;23.90;15.32;;;;;;;16.16;100.00;101864.78;10566561;28;20051;-73
2023/10/02 03:56:42;;;;;;;39.63;16.97;;;;;;;16.14;100.00;101858.69;10582001;28;20039;-73
2023/10/02 04:01:43;;;;;;;22.88;16.05;;;;;;;16.13;100.00;101850.72;10581580;28;20311;-73
2023/10/02 04:06:43;;;;;;;25.90;13.77;;;;;;;16.07;100.00;101846.09;10580995;28;20042;-73
2023/10/02 04:11:50;;;;;;;19.70;14.32;;;;;;;16.11;100.00;101848.16;10580065;28;20080;-73
2023/10/02 04:17:01;;;;;;;;;;;;;;;16.06;100.00;101856.19;10580655;28;20079;-73
2023/10/02 04:22:06;;;;;;;23.30;14.45;;;;;;;16.05;100.00;101854.50;10580184;28;20093;-73
2023/10/02 04:27:18;;;;;;;34.63;15.20;;;;;;;16.13;100.00;101850.72;10582010;28;20023;-73
2023/10/02 04:32:19;;;;;;;23.73;16.40;;;;;;;16.12;100.00;101860.81;10580987;28;20413;-72
2023/10/02 04:37:20;;;;;;;27.42;15.00;;;;;;;16.11;100.00;101848.16;10579522;28;20390;-74
2023/10/02 04:42:25;;;;;;;29.08;15.18;;;;;;;16.13;100.00;101858.91;10597047;27;20035;-74
2023/10/02 04:47:30;;;;;;;23.98;16.58;;;;;;;16.12;100.00;101865.44;10579021;28;20042;-73
2023/10/02 04:52:53;;;;;;;28.05;17.08;;;;;;;16.08;100.00;101861.41;10581541;28;20363;-73
2023/10/02 04:57:55;;;;;;;24.90;16.73;;;;;;;16.03;100.00;101865.63;10579414;28;20050;-73
2023/10/02 05:08:20;;;;;;;29.27;16.75;;;;;;;16.01;100.00;101867.72;10579090;28;20126;-74
2023/10/02 05:18:51;;;;;;;26.67;15.32;;;;;;;16.14;100.00;101852.38;10578145;28;20055;-74
2023/10/02 05:24:00;;;;;;;30.65;19.08;;;;;;;16.20;100.00;101863.31;10595889;27;20134;-73
2023/10/02 05:29:01;;;;;;;23.13;17.30;;;;;;;16.30;100.00;101865.59;10579348;28;20031;-73
2023/10/02 05:34:08;;;;;;;28.90;17.65;;;;;;;16.33;100.00;101873.38;10577551;28;20039;-74
2023/10/02 05:44:28;;;;;;;31.60;22.40;;;;;;;16.40;100.00;101876.97;10576735;28;19951;-74
2023/10/02 05:49:30;;;;;;;23.75;17.48;;;;;;;16.43;100.00;101879.28;10598930;27;20379;-74
2023/10/02 05:54:35;;;;;;;38.20;20.70;;;;;;;16.47;100.00;101880.53;10585339;28;20036;-74
2023/10/02 05:59:46;;;;;;;29.95;18.77;;;;;;;16.49;100.00;101891.22;10585324;28;20482;-73
2023/10/02 06:04:48;;;;;;;33.55;17.75;;;;;;;16.47;100.00;101886.00;10586860;27;20043;-73
2023/10/02 06:09:49;;;;;;;35.38;20.30;;;;;;;16.54;100.00;101888.72;10584809;28;20107;-74
2023/10/02 06:14:49;;;;;;;27.17;18.35;;;;;;;16.58;100.00;101897.34;10568944;28;20024;-74
2023/10/02 06:19:51;;;;;;;30.42;17.63;;;;;;;16.60;100.00;101892.50;10584165;28;20113;-73
2023/10/02 06:24:52;;;;;;;31.08;18.73;;;;;;;16.63;100.00;101909.31;10585195;28;20459;-73
2023/10/02 06:29:52;;;;;;;44.10;21.23;;;;;;;16.68;100.00;101895.00;10584549;28;20104;-74
2023/10/02 06:34:57;;;;;;;31.45;20.67;;;;;;;16.87;100.00;101907.81;10586262;28;20028;-73
2023/10/02 06:40:14;;;;;;;31.23;21.38;;;;;;;17.03;100.00;101909.22;10587928;28;20095;-74
2023/10/02 06:45:18;;;;;;;40.93;20.80;;;;;;;17.20;100.00;101902.22;10583340;28;20047;-74
2023/10/02 06:50:27;;;;;;;34.97;20.52;;;;;;;17.30;100.00;101890.81;10584327;28;20031;-73
2023/10/02 06:55:29;;;;;;;29.45;18.63;;;;;;;17.40;100.00;101906.78;10584765;28;20031;-74
2023/10/02 07:00:54;;;;;;;28.45;19.92;;;;;;;17.59;100.00;101905.81;10565540;28;20153;-73
2023/10/02 07:05:50;;;;;;;30.60;20.60;;;;;;;17.96;100.00;101916.16;10583678;28;20035;-74
2023/10/02 07:10:51;;;;;;;32.03;19.27;;;;;;;18.22;100.00;101901.38;10582611;28;20472;-74
2023/10/02 07:15:55;;;;;;;36.15;18.67;;;;;;;18.32;100.00;101896.25;10583466;28;20118;-74
2023/10/02 07:20:56;;;;;;;33.10;19.65;;;;;;;18.29;100.00;101911.25;10565273;28;20103;-74
2023/10/02 07:25:57;;;;;;;35.72;19.52;;;;;;;18.30;100.00;101921.16;10584069;28;20036;-74
2023/10/02 07:30:59;;;;;;;34.75;20.48;;;;;;;18.43;100.00;101941.28;10582062;28;20142;-75
2023/10/02 07:36:08;;;;;;;27.85;18.42;;;;;;;18.49;100.00;101940.41;10582951;28;20039;-74
2023/10/02 07:41:28;;;;;;;38.35;18.48;;;;;;;18.63;100.00;101939.19;10582991;28;20527;-74
2023/10/02 07:46:28;;;;;;;42.78;19.10;;;;;;;18.92;100.00;101932.19;10584418;28;20106;-74
2023/10/02 07:51:38;;;;;;;25.98;19.20;;;;;;;19.02;100.00;101934.41;10599080;27;20447;-74
2023/10/02 07:56:39;;;;;;;31.15;18.95;;;;;;;19.17;100.00;101950.47;10583338;28;20040;-74
2023/10/02 08:01:39;;;;;;;33.65;21.15;;;;;;;19.11;100.00;101946.75;10582156;28;20370;-74
2023/10/02 08:06:44;;;;;;;30.02;17.83;;;;;;;19.18;100.00;101941.19;10582669;28;20035;-74
2023/10/02 08:11:49;;;;;;;36.20;19.80;;;;;;;19.40;100.00;101933.28;10597222;27;20039;-74
2023/10/02 08:16:59;;;;;;;42.08;20.25;;;;;;;19.47;100.00;101923.06;10564621;28;20055;-74
2023/10/02 08:22:02;;;;;;;31.98;19.23;;;;;;;19.43;100.00;101921.84;10581366;28;20043;-74
2023/10/02 08:27:04;;;;;;;36.63;21.30;;;;;;;19.72;100.00;101931.22;10579030;28;20561;-74
2023/10/02 08:32:04;;;;;;;34.40;19.20;;;;;;;20.15;100.00;101932.88;10579588;28;20044;-74
2023/10/02 08:37:05;;;;;;;33.40;17.52;;;;;;;20.54;100.00;101925.88;10580457;28;20525;-75
2023/10/02 08:42:13;;;;;;;27.83;17.92;;;;;;;20.94;100.00;101941.69;10579588;28;20458;-74
2023/10/02 08:47:25;;;;;;;35.70;18.52;;;;;;;21.27;100.00;101927.22;10596576;27;20038;-74
2023/10/02 08:52:38;;;;;;;27.60;18.13;;;;;;;21.63;100.00;101932.63;10596929;27;20040;-74
2023/10/02 08:57:49;;;;;;;23.48;18.30;;;;;;;22.25;100.00;101930.75;10580352;28;20088;-74
2023/10/02 09:02:54;;;;;;;27.83;19.50;;;;;;;22.36;100.00;101923.47;10561255;28;20031;-74
2023/10/02 09:13:24;;;;;;;26.33;17.92;;;;;;;23.35;100.00;101911.59;10581691;28;20451;-74
2023/10/02 09:18:35;;;;;;;20.83;15.23;;;;;;;23.75;100.00;101924.25;10562134;28;20079;-74
2023/10/02 09:23:35;;;;;;;21.77;13.75;;;;;;;23.93;100.00;101909.22;10560841;28;20050;-75
2023/10/02 09:28:41;;;;;;;17.85;13.25;;;;;;;23.79;100.00;101911.56;10578484;28;20039;-74
2023/10/02 09:33:46;;;;;;;22.83;16.27;;;;;;;23.66;100.00;101915.56;10577723;28;20518;-74
2023/10/02 09:38:46;;;;;;;19.17;14.57;;;;;;;23.18;100.00;101906.16;10578228;28;20129;-74
2023/10/02 09:43:49;;;;;;;17.90;14.38;;;;;;;23.19;100.00;101893.19;10577173;28;20030;-74
2023/10/02 09:49:03;;;;;;;19.73;14.73;;;;;;;23.67;100.00;101902.56;10579575;28;20035;-75
2023/10/02 09:54:28;;;;;;;18.60;14.93;;;;;;;23.48;100.00;101892.97;10561595;28;20062;-75
2023/10/02 09:59:28;;;;;;;18.48;13.52;;;;;;;23.43;100.00;101894.56;10578408;28;20032;-74
2023/10/02 10:10:31;;;;;;;16.20;13.10;;;;;;;25.12;94.62;101882.06;10578015;28;20031;-75
2023/10/02 10:15:33;;;;;;;18.90;12.77;;;;;;;25.74;99.03;101888.59;10579071;28;20027;-75
2023/10/02 10:20:35;;;;;;;20.90;12.02;;;;;;;26.26;97.40;101883.91;10575935;28;20075;-75
2023/10/02 10:25:43;;;;;;;10.40;9.50;;;;;;;26.86;90.92;101880.19;10576266;28;20437;-75
2023/10/02 10:30:49;;;;;;;15.35;10.98;;;;;;;27.32;78.15;101874.44;10577149;28;20039;-74
2023/10/02 10:35:52;;;;;;;14.95;10.30;;;;;;;27.21;71.37;101874.78;10581966;28;20403;-75
2023/10/02 10:41:05;;;;;;;12.27;9.05;;;;;;;26.48;81.14;101866.94;10584599;27;20470;-75
2023/10/02 10:46:12;;;;;;;11.07;8.35;;;;;;;26.51;84.54;101875.56;10584054;28;20450;-75
2023/10/02 10:51:21;;;;;;;14.30;9.43;;;;;;;26.96;86.86;101873.75;10585660;28;20028;-75
2023/10/02 10:56:22;;;;;;;13.15;11.20;;;;;;;26.44;80.68;101877.78;10585134;28;20375;-76
2023/10/02 11:01:23;;;;;;;12.32;9.90;;;;;;;26.37;84.66;101875.28;10582754;28;20091;-74
2023/10/02 11:06:24;;;;;;;14.50;7.15;;;;;;;26.11;87.92;101866.16;10599636;27;20081;-74
2023/10/02 11:11:25;;;;;;;9.40;8.25;;;;;;;25.97;88.65;101871.44;10582383;28;20039;-74
2023/10/02 11:16:34;;;;;;;12.93;7.40;;;;;;;26.16;87.89;101870.88;10584499;28;20213;-75
2023/10/02 11:21:44;;;;;;;10.85;7.95;;;;;;;26.60;82.48;101862.75;10581942;28;20095;-74
2023/10/02 11:26:45;;;;;;;22.35;8.90;;;;;;;26.88;84.99;101860.44;10583178;28;20480;-75
2023/10/02 11:31:55;;;;;;;20.58;10.15;;;;;;;27.02;84.66;101842.03;10599717;27;20167;-75
2023/10/02 11:36:56;;;;;;;14.55;10.05;;;;;;;27.21;77.38;101846.97;10582691;28;20035;-74
2023/10/02 11:41:59;;;;;;;15.20;8.95;;;;;;;26.68;82.14;101839.13;10599889;27;20153;-74
2023/10/02 11:47:00;;;;;;;12.05;10.45;;;;;;;26.97;83.10;101836.50;10583990;28;20382;-74
2023/10/02 11:52:02;;;;;;;16.42;8.95;;;;;;;27.32;80.64;101827.16;10582287;28;20092;-74
2023/10/02 11:57:10;;;;;;;15.45;9.82;;;;;;;26.92;81.30;101824.56;10581698;28;20482;-74
2023/10/02 12:02:11;;;;;;;13.77;9.10;;;;;;;27.16;81.20;101813.66;10582460;28;20065;-75
2023/10/02 12:07:15;;;;;;;14.73;9.77;;;;;;;27.30;80.65;101811.88;10582367;28;20104;-75
2023/10/02 12:12:16;;;;;;;17.60;9.50;;;;;;;27.64;84.28;101797.19;10580229;28;20355;-75
2023/10/02 12:17:16;;;;;;;16.50;10.57;;;;;;;27.20;74.46;101787.75;10579370;28;20048;-74
2023/10/02 12:22:17;;;;;;;12.52;9.95;;;;;;;26.77;78.91;101789.34;10596265;27;20204;-75
2023/10/02 12:27:18;;;;;;;14.15;10.65;;;;;;;27.15;84.96;101773.03;10580549;28;20035;-75
2023/10/02 12:32:19;;;;;;;15.65;10.13;;;;;;;27.06;81.98;101779.19;10580418;28;20496;-75
2023/10/02 12:37:20;;;;;;;16.52;8.85;;;;;;;27.26;81.73;101769.91;10581483;27;20124;-74
2023/10/02 12:42:20;;;;;;;22.33;9.65;;;;;;;27.69;81.18;101772.91;10579256;28;20500;-75
2023/10/02 12:47:21;;;;;;;23.27;9.85;;;;;;;28.15;82.65;101760.53;10579679;28;20031;-75
2023/10/02 12:52:23;;;;;;;12.98;7.93;;;;;;;28.20;82.91;101758.50;10580992;28;20050;-74
2023/10/02 12:57:23;;;;;;;13.68;8.07;;;;;;;28.23;83.12;101759.84;10578123;28;20084;-75
2023/10/02 13:02:23;;;;;;;11.85;9.05;;;;;;;27.96;81.27;101754.88;10577896;28;20116;-75
2023/10/02 13:07:24;;;;;;;20.35;9.00;;;;;;;27.82;83.31;101740.81;10579662;28;20039;-75
2023/10/02 13:12:24;;;;;;;20.17;7.80;;;;;;;27.83;84.04;101738.88;10577607;28;20114;-75
2023/10/02 13:17:25;;;;;;;13.75;8.65;;;;;;;27.74;81.25;101724.72;10578958;28;20052;-74
2023/10/02 13:22:27;;;;;;;16.80;8.13;;;;;;;27.71;81.15;101725.31;10577992;28;20063;-75
2023/10/02 13:27:27;;;;;;;19.55;9.75;;;;;;;27.60;81.78;101716.25;10578909;28;20075;-74
2023/10/02 13:32:29;;;;;;;11.10;8.25;;;;;;;27.53;82.87;101713.78;10578403;28;20039;-75
2023/10/02 13:37:29;;;;;;;16.42;8.98;;;;;;;27.75;78.58;101704.09;10579224;28;20043;-75
2023/10/02 13:42:29;;;;;;;14.30;7.57;;;;;;;27.69;79.26;101694.16;10578510;28;20047;-74
2023/10/02 13:47:31;;;;;;;12.32;8.32;;;;;;;27.62;78.94;101699.25;10593977;28;20035;-74
2023/10/02 13:52:31;;;;;;;14.07;7.57;;;;;;;27.47;76.85;101686.28;10579333;28;20047;-75
2023/10/02 13:57:32;;;;;;;13.32;8.20;;;;;;;27.52;81.47;101673.16;10577979;28;20035;-75
2023/10/02 14:02:32;;;;;;;11.13;6.53;;;;;;;28.02;83.63;101661.81;10577330;28;20036;-75
2023/10/02 14:07:36;;;;;;;9.05;7.22;;;;;;;27.87;77.24;101650.84;10578241;28;20032;-75
2023/10/02 14:12:43;;;;;;;27.45;9.25;;;;;;;27.29;78.93;101641.41;10586461;28;20123;-74
2023/10/02 14:17:45;;;;;;;11.25;7.97;;;;;;;26.98;75.07;101629.69;10585677;28;20413;-74
2023/10/02 14:22:48;;;;;;;17.65;10.70;;;;;;;26.40;79.10;101623.94;10586440;28;20041;-74
2023/10/02 14:27:49;;;;;;;19.40;10.43;;;;;;;26.32;82.54;101617.03;10584039;28;20047;-74
2023/10/02 14:32:49;;;;;;;15.93;8.98;;;;;;;26.07;81.66;101615.25;10583845;28;20050;-74
2023/10/02 14:37:52;;;;;;;21.90;9.52;;;;;;;25.89;84.14;101602.00;10583509;28;20046;-75
2023/10/02 14:42:52;;;;;;;15.43;9.88;;;;;;;26.11;83.07;101602.44;10584884;27;20037;-74
2023/10/02 14:47:56;;;;;;;20.38;10.95;;;;;;;25.79;81.82;101590.91;10583672;28;20028;-74
2023/10/02 14:52:57;;;;;;;11.02;8.65;;;;;;;25.63;83.67;101577.09;10584054;28;20388;-74
2023/10/02 14:57:58;;;;;;;16.15;9.90;;;;;;;25.27;85.33;101585.50;10584811;28;20115;-74
2023/10/02 15:02:58;;;;;;;18.48;11.07;;;;;;;25.01;87.35;101584.63;10584029;28;20040;-74
2023/10/02 15:08:00;;;;;;;16.90;10.05;;;;;;;24.75;88.66;101574.69;10583399;28;20024;-74
2023/10/02 15:13:00;;;;;;;32.92;11.50;;;;;;;24.37;91.39;101572.09;10582768;28;20515;-74
2023/10/02 15:18:02;;;;;;;17.15;12.82;;;;;;;24.16;92.74;101562.09;10583651;28;20116;-74
2023/10/02 15:23:02;;;;;;;18.02;10.30;;;;;;;23.99;94.84;101550.41;10582220;28;20070;-74
2023/10/02 15:28:03;;;;;;;34.15;13.18;;;;;;;23.90;95.02;101544.59;10582910;27;20042;-74
2023/10/02 15:33:03;;;;;;;23.60;11.77;;;;;;;23.71;98.16;101511.06;10582615;28;20077;-74
2023/10/02 15:38:04;;;;;;;26.02;13.82;;;;;;;23.80;96.62;101512.22;10581076;28;20096;-74
2023/10/02 15:43:04;;;;;;;16.33;12.10;;;;;;;23.75;98.63;101514.94;10599925;27;20028;-74
2023/10/02 15:48:05;;;;;;;22.85;11.18;;;;;;;23.67;98.45;101509.88;10581192;28;20075;-74
2023/10/02 15:53:05;;;;;;;24.25;14.77;;;;;;;23.47;100.00;101507.03;10581854;28;20054;-74
2023/10/02 15:58:06;;;;;;;20.95;12.70;;;;;;;23.44;100.00;101500.13;10597661;27;20119;-74
2023/10/02 16:03:07;;;;;;;21.38;12.07;;;;;;;23.39;100.00;101506.47;10547825;28;20023;-74
2023/10/02 16:08:08;;;;;;;23.63;12.98;;;;;;;23.33;100.00;101496.47;10581778;28;20486;-74
2023/10/02 16:13:09;;;;;;;18.77;12.75;;;;;;;23.36;99.96;101498.72;10581572;28;20043;-74
2023/10/02 16:18:10;;;;;;;25.02;14.85;;;;;;;23.41;99.92;101506.19;10580855;28;20051;-74
2023/10/02 16:23:10;;;;;;;25.05;14.23;;;;;;;23.47;99.95;101498.75;10563736;28;20044;-74
2023/10/02 16:28:11;;;;;;;26.27;13.57;;;;;;;23.49;100.00;101502.09;10582060;28;20336;-74
2023/10/02 16:33:11;;;;;;;22.00;12.98;;;;;;;23.42;100.00;101491.25;10580680;28;20036;-74
2023/10/02 16:38:12;;;;;;;27.17;12.75;;;;;;;23.26;100.00;101495.91;10579928;28;20027;-74
2023/10/02 16:43:12;;;;;;;21.52;13.25;;;;;;;23.07;100.00;101486.38;10581668;28;20343;-74
2023/10/02 16:48:13;;;;;;;26.05;14.13;;;;;;;22.84;100.00;101488.41;10579574;28;20320;-74
2023/10/02 16:53:14;;;;;;;20.55;12.40;;;;;;;22.57;100.00;101493.19;10579927;28;20134;-74
2023/10/02 16:58:15;;;;;;;18.13;12.38;;;;;;;22.29;100.00;101484.91;10581959;28;20111;-74
2023/10/02 17:03:15;;;;;;;24.15;11.77;;;;;;;22.08;100.00;101491.31;10578755;28;20127;-74
2023/10/02 17:08:15;;;;;;;21.80;13.65;;;;;;;21.91;100.00;101499.66;10578431;28;20402;-74
2023/10/02 17:13:16;;;;;;;31.58;11.02;;;;;;;21.81;100.00;101496.81;10595336;27;20047;-74
2023/10/02 17:18:17;;;;;;;23.75;11.98;;;;;;;21.73;100.00;101494.50;10579055;28;20052;-74
2023/10/02 17:23:17;;;;;;;18.00;11.00;;;;;;;21.66;100.00;101511.22;10594616;27;20040;-74
2023/10/02 17:28:18;;;;;;;21.83;14.00;;;;;;;21.59;100.00;101519.69;10578600;28;20027;-74
2023/10/02 17:33:19;;;;;;;20.17;12.95;;;;;;;21.53;100.00;101525.41;10578043;28;20386;-74
2023/10/02 17:38:22;;;;;;;16.75;12.70;;;;;;;21.43;100.00;101514.25;10578412;28;20028;-74
2023/10/02 17:43:23;;;;;;;16.65;9.52;;;;;;;21.22;100.00;101505.69;10581261;28;20043;-74
2023/10/02 17:48:23;;;;;;;16.25;11.68;;;;;;;20.95;100.00;101505.53;10586626;28;20343;-74
2023/10/02 17:53:24;;;;;;;16.55;12.32;;;;;;;20.63;100.00;101508.88;10584858;28;20035;-74
2023/10/02 17:58:24;;;;;;;18.60;12.25;;;;;;;20.31;100.00;101497.59;10586139;28;20066;-74
2023/10/02 18:03:24;;;;;;;28.42;15.30;;;;;;;20.02;100.00;101488.53;10587192;28;20032;-74
2023/10/02 18:08:25;;;;;;;28.52;14.70;;;;;;;19.83;100.00;101492.56;10585018;28;20050;-74
2023/10/02 18:13:25;;;;;;;33.03;14.93;;;;;;;19.67;100.00;101495.00;10585871;28;20032;-74
2023/10/02 18:18:26;;;;;;;21.25;15.02;;;;;;;19.53;100.00;101466.13;10586218;28;20048;-74
2023/10/02 18:23:26;;;;;;;36.72;15.23;;;;;;;19.41;100.00;101465.31;10586173;28;20032;-74
2023/10/02 18:28:27;;;;;;;25.95;16.98;;;;;;;19.32;100.00;101472.25;10585963;28;20071;-74
2023/10/02 18:33:27;;;;;;;27.38;15.35;;;;;;;19.26;100.00;101471.28;10584515;28;20154;-74
2023/10/02 18:38:28;;;;;;;29.25;20.05;;;;;;;19.17;100.00;101461.75;10584597;28;20480;-76
2023/10/02 18:43:28;;;;;;;23.52;17.65;;;;;;;19.10;100.00;101439.94;10586135;28;20092;-75
2023/10/02 18:48:29;;;;;;;30.65;18.63;;;;;;;19.02;100.00;101435.66;10584192;28;20031;-75
2023/10/02 18:53:34;;;;;;;29.90;19.33;;;;;;;18.95;100.00;101434.09;10583749;27;20459;-76
2023/10/02 18:58:35;;;;;;;34.85;21.80;;;;;;;18.80;100.00;101418.13;10600055;27;20032;-75
2023/10/02 19:03:35;;;;;;;31.33;20.35;;;;;;;18.65;100.00;101409.50;10600628;27;20036;-75
2023/10/02 19:08:36;;;;;;;32.58;21.60;;;;;;;18.50;100.00;101405.31;10585918;28;20108;-75
2023/10/02 19:13:36;;;;;;;42.00;23.25;;;;;;;18.45;100.00;101412.63;10583546;28;20082;-75
2023/10/02 19:18:37;;;;;;;40.60;25.13;;;;;;;18.35;100.00;101404.97;10585479;28;20062;-76
2023/10/02 19:23:37;;;;;;;37.85;24.23;;;;;;;18.29;100.00;101403.19;10585725;28;20036;-75
2023/10/02 19:28:39;;;;;;;39.63;23.75;;;;;;;18.25;100.00;101402.81;10584792;28;20071;-75
2023/10/02 19:33:39;;;;;;;29.02;22.42;;;;;;;18.25;100.00;101399.22;10587494;28;20106;-76
2023/10/02 19:38:42;;;;;;;34.75;22.05;;;;;;;18.19;100.00;101383.72;10583999;28;20107;-76
2023/10/02 19:43:43;;;;;;;30.70;21.70;;;;;;;18.11;100.00;101372.03;10598432;27;20080;-74
2023/10/02 19:48:43;;;;;;;39.03;22.92;;;;;;;18.08;100.00;101363.44;10564407;28;20122;-73
2023/10/02 19:53:44;;;;;;;31.70;23.05;;;;;;;18.03;100.00;101352.38;10582366;28;20031;-73
2023/10/02 19:58:44;;;;;;;31.02;22.50;;;;;;;18.03;100.00;101341.41;10582822;27;20031;-73
2023/10/02 20:03:46;;;;;;;43.28;24.67;;;;;;;18.04;100.00;101323.91;10580564;28;20144;-73
2023/10/02 20:08:46;;;;;;;37.55;23.23;;;;;;;18.08;100.00;101311.38;10580167;28;20047;-73
2023/10/02 20:13:47;;;;;;;45.22;24.05;;;;;;;18.10;100.00;101307.34;10581530;28;20043;-74
2023/10/02 20:18:48;;;;;;;34.95;23.30;;;;;;;18.09;100.00;101285.63;10580814;28;20470;-75
2023/10/02 20:23:48;;;;;;;38.35;24.75;;;;;;;18.13;100.00;101276.72;10582532;28;20110;-75
2023/10/02 20:28:49;;;;;;;33.63;24.80;;;;;;;18.21;100.00;101274.69;10581066;28;20051;-75
2023/10/02 20:33:49;;;;;;;33.58;24.15;;;;;;;18.25;100.00;101253.94;10579885;28;20031;-74
2023/10/02 20:38:50;;;;;;;39.90;24.63;;;;;;;18.27;100.00;101238.09;10581250;28;20439;-73
2023/10/02 20:43:50;;;;;;;33.45;24.52;;;;;;;18.29;100.00;101230.47;10562204;28;20105;-74
2023/10/02 20:48:51;;;;;;;39.85;22.65;;;;;;;18.23;100.00;101220.47;10580889;28;20024;-74
2023/10/02 20:53:52;;;;;;;32.38;24.98;;;;;;;18.24;100.00;101209.25;10581290;28;20027;-73
2023/10/02 20:58:52;;;;;;;39.05;25.23;;;;;;;18.20;100.00;101196.28;10579661;28;20306;-73
2023/10/02 21:03:53;;;;;;;50.75;27.17;;;;;;;18.18;100.00;101177.31;10578687;28;20036;-73
2023/10/02 21:08:55;;;;;;;40.22;23.50;;;;;;;18.17;100.00;101174.81;10578951;28;20036;-74
2023/10/02 21:13:56;;;;;;;38.42;28.67;;;;;;;18.22;100.00;101159.31;10579223;28;20028;-73
2023/10/02 21:18:56;;;;;;;54.55;27.55;;;;;;;18.27;100.00;101151.19;10577512;28;20048;-73
2023/10/02 21:23:57;;;;;;;41.05;26.55;;;;;;;18.30;100.00;101141.66;10579360;28;20366;-73
2023/10/02 21:28:57;;;;;;;44.72;27.65;;;;;;;18.36;100.00;101127.78;10576852;28;20109;-74
2023/10/02 21:33:57;;;;;;;41.25;27.85;;;;;;;18.39;100.00;101131.13;10578628;28;20059;-73
2023/10/02 21:38:58;;;;;;;44.35;24.80;;;;;;;18.43;100.00;101118.59;10578770;28;20067;-74
2023/10/02 21:43:58;;;;;;;49.33;26.40;;;;;;;18.44;100.00;101114.78;10578601;28;20377;-74
2023/10/02 21:48:59;;;;;;;41.08;25.70;;;;;;;18.41;100.00;101094.19;10595906;28;20032;-74
2023/10/02 21:53:59;;;;;;;39.03;25.48;;;;;;;18.38;100.00;101093.81;10594290;28;20074;-74
2023/10/02 21:59:00;;;;;;;40.95;25.25;;;;;;;18.34;100.00;101075.09;10595029;28;20062;-73
2023/10/02 22:04:00;;;;;;;39.28;22.15;;;;;;;18.35;100.00;101065.00;10577405;28;20040;-74
2023/10/02 22:09:01;;;;;;;36.25;23.35;;;;;;;18.32;100.00;101079.19;10596353;28;20362;-74
2023/10/02 22:14:04;;;;;;;34.92;21.88;;;;;;;18.31;100.00;101075.63;10586108;28;20042;-74
2023/10/02 22:19:09;;;;;;;40.63;22.92;;;;;;;18.29;100.00;101072.28;10581601;28;20138;-73
2023/10/02 22:24:13;;;;;;;31.25;22.35;;;;;;;18.40;100.00;101064.25;10565084;28;20408;-74
2023/10/02 22:29:14;;;;;;;34.55;22.10;;;;;;;18.44;100.00;101059.94;10580256;28;20035;-74
2023/10/02 22:34:14;;;;;;;28.23;18.10;;;;;;;18.55;100.00;101037.94;10603864;27;20038;-73
2023/10/02 22:39:15;;;;;;;28.50;16.25;;;;;;;18.64;100.00;101029.31;10601664;27;20035;-74
2023/10/02 22:44:15;;;;;;;35.40;18.17;;;;;;;18.72;100.00;101024.25;10585440;28;20079;-74
2023/10/02 22:49:16;;;;;;;26.58;16.25;;;;;;;18.84;100.00;101023.38;10583426;28;20522;-74
2023/10/02 22:54:16;;;;;;;37.67;16.40;;;;;;;18.94;100.00;101007.06;10584724;27;20435;-74
2023/10/02 22:59:17;;;;;;;30.08;16.55;;;;;;;19.03;100.00;100989.91;10583213;28;20031;-74